createdAt,value
2018-11-27T00:00:37.150Z,2.87
2018-11-27T00:03:08.078Z,2.53
2018-11-27T00:05:37.390Z,3.60
2018-11-27T00:08:06.043Z,3.03
2018-11-27T00:10:35.719Z,2.30
2018-11-27T00:13:04.167Z,2.03
2018-11-27T00:15:32.787Z,3.03
2018-11-27T00:18:01.436Z,2.47
2018-11-27T00:20:30.227Z,3.53
2018-11-27T00:22:58.586Z,3.50
2018-11-27T00:25:27.039Z,2.53
2018-11-27T00:27:55.767Z,2.40
2018-11-27T00:30:24.101Z,3.83
2018-11-27T00:32:52.676Z,3.17
2018-11-27T00:35:21.233Z,2.73
2018-11-27T00:37:49.799Z,3.53
2018-11-27T00:40:20.599Z,3.77
2018-11-27T00:42:49.120Z,2.10
2018-11-27T00:45:18.563Z,2.50
2018-11-27T00:47:47.613Z,3.03
2018-11-27T00:50:20.145Z,2.33
2018-11-27T00:52:48.778Z,2.10
2018-11-27T00:55:17.895Z,2.33
2018-11-27T00:57:47.334Z,4.37
2018-11-27T01:00:22.387Z,3.70
2018-11-27T01:02:51.007Z,3.57
2018-11-27T01:05:21.465Z,3.73
2018-11-27T01:07:49.958Z,3.40
2018-11-27T01:10:23.187Z,3.23
2018-11-27T01:12:51.732Z,2.30
2018-11-27T01:15:20.220Z,3.57
2018-11-27T01:17:50.679Z,4.43
2018-11-27T01:20:19.844Z,2.03
2018-11-27T01:22:48.428Z,2.17
2018-11-27T01:25:17.146Z,2.27
2018-11-27T01:27:45.788Z,3.43
2018-11-27T01:30:16.125Z,1.60
2018-11-27T01:32:44.729Z,3.27
2018-11-27T01:35:14.252Z,2.50
2018-11-27T01:37:42.787Z,1.90
2018-11-27T01:40:19.828Z,1.50
2018-11-27T01:42:51.143Z,2.17
2018-11-27T01:45:20.446Z,1.70
2018-11-27T01:47:48.964Z,1.70
2018-11-27T01:50:18.367Z,2.37
2018-11-27T01:52:46.773Z,1.83
2018-11-27T01:55:15.996Z,2.43
2018-11-27T01:57:44.551Z,1.40
2018-11-27T02:00:21.428Z,2.37
2018-11-27T02:02:49.949Z,2.23
2018-11-27T02:05:18.568Z,2.33
2018-11-27T02:07:46.955Z,2.03
2018-11-27T02:10:15.463Z,2.50
2018-11-27T02:12:44.911Z,2.40
2018-11-27T02:15:15.584Z,3.77
2018-11-27T02:17:44.145Z,1.87
2018-11-27T02:20:12.827Z,2.53
2018-11-27T02:22:41.319Z,2.23
2018-11-27T02:25:18.211Z,2.20
2018-11-27T02:27:46.780Z,2.53
2018-11-27T02:30:16.070Z,2.93
2018-11-27T02:32:44.715Z,1.97
2018-11-27T02:35:15.761Z,2.90
2018-11-27T02:37:44.234Z,1.50
2018-11-27T02:40:13.551Z,4.93
2018-11-27T02:42:42.290Z,2.27
2018-11-27T02:45:11.653Z,2.07
2018-11-27T02:47:40.209Z,1.53
2018-11-27T02:58:13.017Z,4.07
2018-11-27T03:00:41.060Z,2.07
2018-11-27T03:03:09.082Z,2.20
2018-11-27T03:05:37.338Z,1.53
2018-11-27T03:08:05.693Z,5.00
2018-11-27T03:10:33.978Z,1.80
2018-11-27T03:13:02.123Z,3.73
2018-11-27T03:15:30.341Z,1.93
2018-11-27T03:17:58.430Z,1.90
2018-11-27T03:20:26.607Z,2.20
2018-11-27T03:22:54.744Z,2.17
2018-11-27T03:25:23.299Z,2.33
2018-11-27T03:27:52.649Z,2.43
2018-11-27T03:30:21.696Z,2.10
2018-11-27T03:32:49.859Z,2.57
2018-11-27T03:35:18.919Z,1.93
2018-11-27T03:37:47.710Z,2.40
2018-11-27T03:40:17.695Z,2.37
2018-11-27T03:42:45.794Z,1.80
2018-11-27T03:45:14.604Z,2.57
2018-11-27T03:47:42.890Z,4.63
2018-11-27T03:50:27.774Z,2.17
2018-11-27T03:52:56.022Z,4.37
2018-11-27T03:55:24.229Z,4.17
2018-11-27T03:57:52.360Z,1.30
2018-11-27T04:00:25.259Z,2.60
2018-11-27T04:02:56.484Z,2.87
2018-11-27T04:05:25.515Z,2.00
2018-11-27T04:07:53.640Z,2.87
2018-11-27T04:10:21.708Z,2.53
2018-11-27T04:12:50.280Z,3.47
2018-11-27T04:15:18.478Z,2.60
2018-11-27T04:17:47.043Z,4.00
2018-11-27T04:20:15.528Z,4.33
2018-11-27T04:22:44.461Z,3.20
2018-11-27T04:25:14.997Z,3.63
2018-11-27T04:27:43.802Z,2.30
2018-11-27T04:30:13.366Z,2.17
2018-11-27T04:32:41.930Z,1.37
2018-11-27T04:35:11.500Z,4.30
2018-11-27T04:37:40.099Z,3.17
2018-11-27T04:40:09.848Z,2.33
2018-11-27T04:42:38.350Z,2.93
2018-11-27T04:45:11.172Z,2.90
2018-11-27T04:47:39.982Z,2.47
2018-11-27T04:50:11.123Z,1.33
2018-11-27T04:52:39.803Z,4.00
2018-11-27T04:55:12.992Z,2.37
2018-11-27T04:57:41.554Z,2.17
2018-11-27T05:00:11.555Z,4.80
2018-11-27T05:02:39.970Z,2.87
2018-11-27T05:05:08.759Z,2.57
2018-11-27T05:07:37.341Z,3.83
2018-11-27T05:10:09.313Z,2.30
2018-11-27T05:12:38.240Z,2.37
2018-11-27T05:15:14.367Z,3.27
2018-11-27T05:17:47.869Z,2.03
2018-11-27T05:20:12.131Z,2.33
2018-11-27T05:22:40.603Z,2.77
2018-11-27T05:25:10.845Z,2.30
2018-11-27T05:27:39.602Z,3.43
2018-11-27T05:30:12.357Z,6.07
2018-11-27T05:32:41.072Z,1.77
2018-11-27T05:35:11.843Z,2.57
2018-11-27T05:37:41.053Z,4.50
2018-11-27T05:40:12.023Z,4.03
2018-11-27T05:42:40.858Z,6.73
2018-11-27T05:45:17.840Z,5.73
2018-11-27T05:47:45.944Z,11.67
2018-11-27T05:50:15.986Z,7.50
2018-11-27T05:52:44.108Z,2.13
2018-11-27T05:55:13.320Z,2.07
2018-11-27T05:57:41.911Z,2.27
2018-11-27T06:00:17.129Z,2.20
2018-11-27T06:02:46.058Z,3.57
2018-11-27T06:05:16.201Z,3.07
2018-11-27T06:07:44.289Z,4.17
2018-11-27T06:10:14.674Z,4.30
2018-11-27T06:12:42.797Z,2.57
2018-11-27T06:15:13.289Z,3.57
2018-11-27T06:17:41.739Z,2.77
2018-11-27T06:20:18.100Z,2.33
2018-11-27T06:22:46.322Z,2.20
2018-11-27T06:25:16.582Z,1.90
2018-11-27T06:27:45.698Z,1.83
2018-11-27T06:30:20.125Z,2.47
2018-11-27T06:32:48.806Z,4.07
2018-11-27T06:35:20.397Z,2.50
2018-11-27T06:37:49.012Z,4.40
2018-11-27T06:40:18.850Z,11.23
2018-11-27T06:42:48.014Z,4.87
2018-11-27T06:45:18.748Z,5.00
2018-11-27T06:47:49.057Z,4.30
2018-11-27T06:50:18.565Z,5.80
2018-11-27T06:52:47.290Z,7.50
2018-11-27T06:55:18.673Z,6.73
2018-11-27T06:57:47.548Z,4.73
2018-11-27T07:00:21.775Z,4.60
2018-11-27T07:02:50.441Z,3.93
2018-11-27T07:05:19.100Z,4.87
2018-11-27T07:07:47.829Z,4.13
2018-11-27T07:10:24.263Z,5.33
2018-11-27T07:12:54.085Z,5.20
2018-11-27T07:15:23.245Z,7.03
2018-11-27T07:17:51.800Z,4.83
2018-11-27T07:20:20.362Z,4.10
2018-11-27T07:22:49.124Z,3.90
2018-11-27T07:25:17.856Z,5.83
2018-11-27T07:27:48.164Z,5.00
2018-11-27T07:30:18.704Z,3.90
2018-11-27T07:32:47.275Z,3.97
2018-11-27T07:35:16.578Z,5.37
2018-11-27T07:37:44.979Z,4.87
2018-11-27T07:40:17.836Z,3.90
2018-11-27T07:42:46.412Z,5.53
2018-11-27T07:45:17.327Z,5.20
2018-11-27T07:47:45.690Z,7.43
2018-11-27T07:50:14.750Z,2.90
2018-11-27T07:52:43.356Z,4.67
2018-11-27T07:55:14.676Z,3.47
2018-11-27T07:57:43.167Z,4.87
2018-11-27T08:00:16.314Z,4.50
2018-11-27T08:02:45.727Z,4.87
2018-11-27T08:05:15.376Z,8.33
2018-11-27T08:07:46.643Z,13.07
2018-11-27T08:10:16.298Z,9.93
2018-11-27T08:12:45.037Z,3.90
2018-11-27T08:15:14.298Z,9.73
2018-11-27T08:17:42.830Z,13.83
2018-11-27T08:20:21.978Z,6.47
2018-11-27T08:22:50.436Z,2.73
2018-11-27T08:25:19.075Z,2.77
2018-11-27T08:27:47.833Z,3.47
2018-11-27T08:30:18.888Z,3.63
2018-11-27T08:32:58.058Z,6.23
2018-11-27T08:35:28.142Z,7.47
2018-11-27T08:37:58.339Z,5.37
2018-11-27T08:40:27.686Z,5.70
2018-11-27T08:42:56.188Z,5.00
2018-11-27T08:45:24.951Z,4.17
2018-11-27T08:47:54.375Z,5.20
2018-11-27T08:50:24.659Z,4.77
2018-11-27T08:52:56.553Z,5.53
2018-11-27T08:55:29.239Z,3.53
2018-11-27T08:57:58.294Z,14.10
2018-11-27T09:00:27.101Z,13.80
2018-11-27T09:02:55.989Z,4.37
2018-11-27T09:05:24.681Z,6.13
2018-11-27T09:07:54.088Z,3.13
2018-11-27T09:10:23.726Z,6.40
2018-11-27T09:12:52.246Z,4.13
2018-11-27T09:15:22.016Z,4.00
2018-11-27T09:17:53.643Z,8.47
2018-11-27T09:20:22.272Z,5.03
2018-11-27T09:22:51.492Z,5.40
2018-11-27T09:25:20.157Z,4.43
2018-11-27T09:27:48.898Z,6.63
2018-11-27T09:30:22.075Z,4.70
2018-11-27T09:32:50.811Z,4.93
2018-11-27T09:35:19.641Z,4.60
2018-11-27T09:37:48.186Z,5.00
2018-11-27T09:40:18.218Z,6.47
2018-11-27T09:42:47.020Z,8.00
2018-11-27T09:45:18.825Z,5.53
2018-11-27T09:47:48.232Z,5.33
2018-11-27T09:50:18.225Z,4.57
2018-11-27T09:52:46.801Z,4.93
2018-11-27T09:55:17.038Z,6.97
2018-11-27T09:57:45.419Z,6.87
2018-11-27T10:00:20.655Z,6.20
2018-11-27T10:02:49.172Z,5.63
2018-11-27T10:05:17.807Z,6.00
2018-11-27T10:07:46.399Z,3.93
2018-11-27T10:10:16.199Z,6.40
2018-11-27T10:12:44.991Z,5.87
2018-11-27T10:15:16.079Z,6.80
2018-11-27T10:18:00.377Z,9.50
2018-11-27T10:20:31.454Z,10.23
2018-11-27T10:22:59.962Z,9.67
2018-11-27T10:25:28.516Z,12.13
2018-11-27T10:27:57.058Z,7.80
2018-11-27T10:30:26.714Z,8.10
2018-11-27T10:32:57.546Z,7.90
2018-11-27T10:35:30.941Z,8.13
2018-11-27T10:37:59.523Z,12.87
2018-11-27T10:40:28.122Z,6.90
2018-11-27T10:42:56.791Z,8.77
2018-11-27T10:45:25.365Z,8.07
2018-11-27T10:47:54.684Z,8.47
2018-11-27T10:50:23.299Z,8.70
2018-11-27T10:52:53.638Z,6.27
2018-11-27T10:55:22.614Z,3.73
2018-11-27T10:57:51.252Z,6.63
2018-11-27T11:00:26.854Z,7.00
2018-11-27T11:03:00.263Z,9.50
2018-11-27T11:05:31.660Z,6.10
2018-11-27T11:08:00.077Z,4.80
2018-11-27T11:10:28.804Z,7.10
2018-11-27T11:12:57.596Z,6.13
2018-11-27T11:15:25.974Z,5.27
2018-11-27T11:17:54.515Z,5.83
2018-11-27T11:20:23.427Z,5.63
2018-11-27T11:22:52.153Z,5.43
2018-11-27T11:25:21.475Z,4.57
2018-11-27T11:27:51.157Z,5.30
2018-11-27T11:30:20.194Z,4.70
2018-11-27T11:32:48.768Z,4.73
2018-11-27T11:35:17.335Z,4.73
2018-11-27T11:37:45.766Z,4.67
2018-11-27T11:40:17.135Z,4.60
2018-11-27T11:42:45.613Z,4.03
2018-11-27T11:45:14.266Z,5.60
2018-11-27T11:47:42.910Z,3.60
2018-11-27T11:50:23.892Z,3.57
2018-11-27T11:53:08.928Z,3.33
2018-11-27T11:55:37.514Z,3.83
2018-11-27T11:58:06.621Z,4.23
2018-11-27T12:00:37.637Z,3.67
2018-11-27T12:03:06.801Z,3.93
2018-11-27T12:05:35.714Z,3.97
2018-11-27T12:08:04.799Z,3.90
2018-11-27T12:10:33.327Z,3.30
2018-11-27T12:13:01.720Z,6.00
2018-11-27T12:15:30.226Z,5.63
2018-11-27T12:17:58.685Z,3.40
2018-11-27T12:20:27.158Z,4.97
2018-11-27T12:22:55.785Z,6.70
2018-11-27T12:25:24.557Z,9.97
2018-11-27T12:27:53.026Z,6.50
2018-11-27T12:30:22.995Z,9.43
2018-11-27T12:32:57.743Z,8.43
2018-11-27T12:35:26.080Z,4.60
2018-11-27T12:37:54.836Z,4.40
2018-11-27T12:40:25.180Z,4.03
2018-11-27T12:42:54.213Z,3.50
2018-11-27T12:45:24.411Z,3.67
2018-11-27T12:47:53.007Z,4.40
2018-11-27T12:50:31.784Z,4.33
2018-11-27T12:53:00.800Z,4.73
2018-11-27T12:55:28.713Z,4.00
2018-11-27T12:57:57.072Z,4.67
2018-11-27T13:00:25.996Z,6.70
2018-11-27T13:02:54.467Z,4.43
2018-11-27T13:05:24.976Z,4.77
2018-11-27T13:07:55.403Z,5.30
2018-11-27T13:10:23.797Z,3.97
2018-11-27T13:12:52.368Z,3.93
2018-11-27T13:15:21.274Z,5.73
2018-11-27T13:17:50.837Z,4.47
2018-11-27T13:20:19.553Z,3.50
2018-11-27T13:22:48.351Z,4.20
2018-11-27T13:25:17.873Z,3.70
2018-11-27T13:27:46.265Z,3.67
2018-11-27T13:30:29.722Z,4.07
2018-11-27T13:33:00.574Z,3.83
2018-11-27T13:35:29.239Z,3.47
2018-11-27T13:37:57.583Z,3.97
2018-11-27T13:40:26.121Z,3.43
2018-11-27T13:42:54.619Z,4.13
2018-11-27T13:45:23.125Z,3.47
2018-11-27T13:47:51.715Z,5.37
2018-11-27T13:50:20.427Z,4.33
2018-11-27T13:52:48.882Z,3.63
2018-11-27T13:55:19.108Z,3.97
2018-11-27T13:57:47.687Z,3.83
2018-11-27T14:00:18.560Z,4.50
2018-11-27T14:02:49.529Z,8.53
2018-11-27T14:05:18.852Z,3.10
2018-11-27T14:07:47.299Z,5.33
2018-11-27T14:10:16.036Z,2.73
2018-11-27T14:12:44.382Z,3.23
2018-11-27T14:15:21.082Z,4.67
2018-11-27T14:17:49.724Z,4.83
2018-11-27T14:20:18.278Z,3.57
2018-11-27T14:22:47.508Z,7.27
2018-11-27T14:25:16.163Z,3.50
2018-11-27T14:27:45.197Z,4.00
2018-11-27T14:30:15.099Z,3.30
2018-11-27T14:32:43.775Z,6.27
2018-11-27T14:35:12.763Z,4.13
2018-11-27T14:37:41.301Z,4.07
2018-11-27T14:40:11.345Z,7.00
2018-11-27T14:42:39.936Z,4.20
2018-11-27T14:45:10.678Z,5.27
2018-11-27T14:47:39.039Z,6.13
2018-11-27T14:50:09.213Z,3.33
2018-11-27T14:52:37.768Z,4.80
2018-11-27T14:55:11.768Z,7.67
2018-11-27T14:57:40.426Z,5.73
2018-11-27T15:00:16.517Z,4.37
2018-11-27T15:02:45.287Z,3.93
2018-11-27T15:05:17.958Z,3.83
2018-11-27T15:07:46.538Z,3.57
2018-11-27T15:10:15.125Z,4.43
2018-11-27T15:12:43.705Z,5.33
2018-11-27T15:15:13.280Z,4.13
2018-11-27T15:17:41.892Z,7.13
2018-11-27T15:20:15.434Z,4.77
2018-11-27T15:22:44.073Z,5.30
2018-11-27T15:25:12.783Z,5.20
2018-11-27T15:27:41.392Z,6.67
2018-11-27T15:30:13.741Z,4.07
2018-11-27T15:32:42.401Z,4.23
2018-11-27T15:35:11.747Z,6.60
2018-11-27T15:37:40.231Z,3.67
2018-11-27T15:40:14.645Z,4.13
2018-11-27T15:42:43.221Z,3.43
2018-11-27T15:45:16.723Z,4.50
2018-11-27T15:47:45.254Z,3.00
2018-11-27T15:50:13.867Z,4.27
2018-11-27T15:52:42.580Z,4.73
2018-11-27T15:55:14.662Z,4.33
2018-11-27T15:57:43.261Z,4.73
2018-11-27T16:00:15.813Z,3.53
2018-11-27T16:02:44.953Z,5.07
2018-11-27T16:05:13.736Z,3.67
2018-11-27T16:07:42.128Z,3.03
2018-11-27T16:10:18.347Z,4.17
2018-11-27T16:12:46.984Z,4.90
2018-11-27T16:15:16.271Z,4.47
2018-11-27T16:17:44.782Z,3.80
2018-11-27T16:20:17.637Z,3.60
2018-11-27T16:22:46.937Z,7.53
2018-11-27T16:25:17.139Z,8.13
2018-11-27T16:27:45.795Z,4.27
2018-11-27T16:30:15.036Z,5.77
2018-11-27T16:32:43.681Z,5.30
2018-11-27T16:35:12.922Z,5.20
2018-11-27T16:37:41.589Z,8.03
2018-11-27T16:40:16.893Z,5.20
2018-11-27T16:42:45.426Z,6.03
2018-11-27T16:45:16.574Z,5.83
2018-11-27T16:47:45.212Z,6.90
2018-11-27T16:50:14.279Z,7.20
2018-11-27T16:52:42.976Z,5.37
2018-11-27T16:55:15.236Z,5.87
2018-11-27T16:57:43.776Z,5.47
2018-11-27T17:00:21.003Z,7.07
2018-11-27T17:02:50.564Z,5.87
2018-11-27T17:05:19.092Z,6.50
2018-11-27T17:07:47.787Z,4.83
2018-11-27T17:10:17.041Z,7.90
2018-11-27T17:12:46.056Z,6.50
2018-11-27T17:15:18.403Z,6.10
2018-11-27T17:17:47.050Z,5.27
2018-11-27T17:20:18.113Z,6.60
2018-11-27T17:22:46.761Z,6.73
2018-11-27T17:25:15.125Z,6.70
2018-11-27T17:27:43.871Z,9.80
2018-11-27T17:30:23.820Z,6.60
2018-11-27T17:32:52.689Z,4.60
2018-11-27T17:35:21.424Z,6.10
2018-11-27T17:37:50.048Z,5.87
2018-11-27T17:40:18.861Z,6.30
2018-11-27T17:42:47.421Z,6.03
2018-11-27T17:45:16.149Z,8.33
2018-11-27T17:47:45.324Z,12.90
2018-11-27T17:50:16.611Z,5.37
2018-11-27T17:52:45.113Z,7.60
2018-11-27T17:55:14.182Z,6.03
2018-11-27T17:57:42.990Z,5.63
2018-11-27T18:00:19.502Z,5.30
2018-11-27T18:02:51.749Z,5.23
2018-11-27T18:05:20.503Z,6.23
2018-11-27T18:07:49.158Z,5.93
2018-11-27T18:10:17.649Z,7.07
2018-11-27T18:12:46.035Z,6.07
2018-11-27T18:15:15.596Z,6.13
2018-11-27T18:17:44.112Z,6.17
2018-11-27T18:20:12.755Z,5.10
2018-11-27T18:22:41.122Z,5.37
2018-11-27T18:25:14.147Z,10.40
2018-11-27T18:27:43.398Z,4.80
2018-11-27T18:30:13.542Z,5.13
2018-11-27T18:32:41.929Z,4.47
2018-11-27T18:35:12.385Z,6.10
2018-11-27T18:37:40.965Z,7.50
2018-11-27T18:40:10.652Z,6.13
2018-11-27T18:42:39.455Z,4.70
2018-11-27T18:45:25.149Z,6.83
2018-11-27T18:47:53.835Z,4.20
2018-11-27T18:50:23.325Z,4.37
2018-11-27T18:52:52.034Z,4.30
2018-11-27T18:55:20.720Z,4.37
2018-11-27T18:57:49.345Z,4.10
2018-11-27T19:00:21.531Z,6.00
2018-11-27T19:02:50.181Z,3.83
2018-11-27T19:05:18.847Z,6.57
2018-11-27T19:07:47.511Z,11.87
2018-11-27T19:10:25.824Z,13.70
2018-11-27T19:12:54.304Z,13.07
2018-11-27T19:15:44.717Z,12.73
2018-11-27T19:18:24.245Z,16.17
2018-11-27T19:20:53.046Z,13.30
2018-11-27T19:23:22.705Z,17.53
2018-11-27T19:25:51.337Z,14.67
2018-11-27T19:28:20.079Z,17.53
2018-11-27T19:30:48.897Z,14.17
2018-11-27T19:33:17.797Z,17.17
2018-11-27T19:35:46.595Z,16.50
2018-11-27T19:38:16.630Z,16.00
2018-11-27T19:40:45.868Z,16.13
2018-11-27T19:43:14.666Z,18.57
2018-11-27T19:45:43.165Z,17.13
2018-11-27T19:48:12.233Z,20.13
2018-11-27T19:50:41.944Z,17.03
2018-11-27T19:53:12.524Z,13.57
2018-11-27T19:55:40.923Z,13.07
2018-11-27T19:58:09.934Z,14.97
2018-11-27T20:00:39.023Z,13.03
2018-11-27T20:03:08.984Z,12.70
2018-11-27T20:05:37.719Z,10.83
2018-11-27T20:08:08.497Z,10.40
2018-11-27T20:10:37.420Z,11.30
2018-11-27T20:13:05.968Z,10.23
2018-11-27T20:15:34.737Z,11.63
2018-11-27T20:18:03.595Z,9.70
2018-11-27T20:20:32.198Z,10.43
2018-11-27T20:23:01.187Z,9.97
2018-11-27T20:25:30.058Z,9.93
2018-11-27T20:27:59.049Z,13.67
2018-11-27T20:30:28.448Z,10.57
2018-11-27T20:33:01.631Z,8.00
2018-11-27T20:35:30.706Z,10.47
2018-11-27T20:38:00.668Z,11.27
2018-11-27T20:40:29.442Z,9.87
2018-11-27T20:42:58.057Z,12.53
2018-11-27T20:45:26.969Z,14.00
2018-11-27T20:48:05.325Z,18.30
2018-11-27T20:50:33.937Z,11.13
2018-11-27T20:53:02.555Z,9.23
2018-11-27T20:55:31.181Z,10.40
2018-11-27T20:58:01.464Z,13.03
2018-11-27T21:00:32.504Z,10.43
2018-11-27T21:03:01.590Z,11.17
2018-11-27T21:05:30.108Z,8.03
2018-11-27T21:07:59.076Z,5.93
2018-11-27T21:10:27.672Z,5.73
2018-11-27T21:12:56.280Z,8.17
2018-11-27T21:15:25.032Z,6.63
2018-11-27T21:17:53.509Z,7.13
2018-11-27T21:20:22.289Z,6.37
2018-11-27T21:22:50.918Z,7.50
2018-11-27T21:25:20.191Z,4.90
2018-11-27T21:27:53.516Z,6.57
2018-11-27T21:30:21.850Z,7.23
2018-11-27T21:32:50.336Z,5.93
2018-11-27T21:35:18.781Z,6.97
2018-11-27T21:37:47.422Z,3.30
2018-11-27T21:40:16.782Z,5.50
2018-11-27T21:42:45.431Z,3.27
2018-11-27T21:45:15.227Z,8.43
2018-11-27T21:47:43.728Z,3.27
2018-11-27T21:50:15.474Z,3.40
2018-11-27T21:52:44.115Z,3.37
2018-11-27T21:55:13.634Z,4.23
2018-11-27T21:57:42.244Z,7.63
2018-11-27T22:00:17.912Z,3.60
2018-11-27T22:02:46.562Z,3.67
2018-11-27T22:05:14.985Z,2.80
2018-11-27T22:07:43.815Z,3.33
2018-11-27T22:10:14.200Z,2.97
2018-11-27T22:12:44.287Z,2.90
2018-11-27T22:15:16.971Z,2.87
2018-11-27T22:17:45.555Z,3.90
2018-11-27T22:20:14.126Z,4.57
2018-11-27T22:22:42.519Z,4.13
2018-11-27T22:25:12.357Z,3.13
2018-11-27T22:27:40.935Z,4.23
2018-11-27T22:30:12.366Z,3.37
2018-11-27T22:32:41.428Z,2.10
2018-11-27T22:35:10.186Z,3.53
2018-11-27T22:37:38.957Z,3.43
2018-11-27T22:40:10.576Z,2.53
2018-11-27T22:42:39.178Z,3.90
2018-11-27T22:45:13.374Z,4.10
2018-11-27T22:47:42.015Z,3.07
2018-11-27T22:50:13.255Z,3.23
2018-11-27T22:52:41.624Z,2.77
2018-11-27T22:55:10.356Z,3.57
2018-11-27T22:57:38.767Z,3.73
2018-11-27T23:00:16.283Z,4.07
2018-11-27T23:02:44.800Z,2.50
2018-11-27T23:05:13.518Z,2.93
2018-11-27T23:07:42.388Z,4.83
2018-11-27T23:10:11.315Z,3.30
2018-11-27T23:12:39.871Z,4.87
2018-11-27T23:15:14.291Z,5.07
2018-11-27T23:17:42.834Z,3.83
2018-11-27T23:20:13.866Z,3.77
2018-11-27T23:22:42.378Z,3.33
2018-11-27T23:25:13.370Z,7.17
2018-11-27T23:27:41.924Z,2.70
2018-11-27T23:30:12.600Z,5.07
2018-11-27T23:32:40.991Z,3.07
2018-11-27T23:35:09.639Z,4.30
2018-11-27T23:37:37.915Z,2.90
2018-11-27T23:40:07.951Z,3.67
2018-11-27T23:42:36.461Z,3.90
2018-11-27T23:45:06.276Z,4.00
2018-11-27T23:47:34.737Z,3.53
2018-11-27T23:50:03.158Z,2.73
2018-11-27T23:52:31.727Z,10.87
2018-11-27T23:55:00.384Z,3.20
2018-11-27T23:57:28.792Z,5.53
